Time;durP1;ratioP1;P1;durP2;ratioP2;P2;SDS_P1;SDS_P2;PMS_P1;PMS_P2;Temp;Humidity;BMP_temperature;BMP_pressure;BME280_temperature;BME280_humidity;BME280_pressure;Samples;Min_cycle;Max_cycle;Signal;HPM_P1;HPM_P2
2023/11/24 00:04:49;;;;;;;3.57;2.90;;;;;;;;;;5078104;28;20400;-82
2023/11/24 00:07:25;;;;;;;5.80;2.80;;;9.40;39.10;;;;;;5067645;28;20419;-82
2023/11/24 00:10:43;;;;;;;3.20;2.60;;;9.40;39.20;;;;;;5093474;28;20518;-82
2023/11/24 00:13:37;;;;;;;2.53;2.00;;;9.40;39.10;;;;;;5077065;28;20472;-82
2023/11/24 00:22:55;;;;;;;6.20;2.23;;;9.40;39.10;;;;;;5072103;28;20540;-82
2023/11/24 00:26:12;;;;;;;2.40;2.20;;;9.40;39.20;;;;;;5074625;28;20405;-82
2023/11/24 00:28:49;;;;;;;4.33;2.40;;;;;;;;;;5072938;28;20421;-82
2023/11/24 00:31:25;;;;;;;4.07;2.77;;;9.40;49.60;;;;;;5081137;28;20400;-82
2023/11/24 00:34:01;;;;;;;6.00;1.77;;;;;;;;;;5070848;28;20467;-82
2023/11/24 00:36:48;;;;;;;9.33;3.00;;;9.50;46.40;;;;;;5068560;28;20401;-83
2023/11/24 00:42:18;;;;;;;7.83;2.93;;;9.60;39.40;;;;;;5091338;28;20468;-74
2023/11/24 00:44:43;;;;;;;3.47;2.50;;;9.50;39.30;;;;;;5083870;28;20486;-74
2023/11/24 00:47:13;;;;;;;2.90;2.27;;;;;;;;;;5074573;28;20261;-74
2023/11/24 00:49:49;;;;;;;3.70;1.97;;;9.60;39.30;;;;;;5075353;28;20401;-74
2023/11/24 00:52:19;;;;;;;5.37;2.83;;;9.60;39.30;;;;;;5067839;28;20944;-74
2023/11/24 00:54:49;;;;;;;3.33;2.27;;;9.60;39.30;;;;;;5053684;28;20383;-74
2023/11/24 00:57:19;;;;;;;2.37;2.17;;;9.60;39.30;;;;;;5069576;28;20904;-73
2023/11/24 00:59:45;;;;;;;2.37;2.03;;;;;;;;;;5072654;28;20723;-73
2023/11/24 01:03:00;;;;;;;2.00;1.73;;;9.60;39.30;;;;;;5080686;28;20456;-74
2023/11/24 01:05:26;;;;;;;5.90;2.07;;;9.70;39.30;;;;;;5058954;28;20401;-74
2023/11/24 01:07:55;;;;;;;2.30;1.80;;;;;;;;;;5061505;28;20418;-74
2023/11/24 01:10:25;;;;;;;2.60;2.00;;;9.70;39.30;;;;;;5073076;28;20524;-74
2023/11/24 01:13:18;;;;;;;2.37;1.50;;;9.70;39.40;;;;;;5079413;28;20410;-74
2023/11/24 01:15:49;;;;;;;4.87;1.90;;;9.80;39.50;;;;;;5074644;28;20395;-74
2023/11/24 01:18:15;;;;;;;3.90;1.90;;;;;;;;;;5071651;28;20430;-74
2023/11/24 01:20:41;;;;;;;3.43;1.53;;;9.80;39.50;;;;;;5073944;28;20467;-75
2023/11/24 01:23:20;;;;;;;2.07;1.73;;;9.80;39.40;;;;;;5078575;28;20419;-74
2023/11/24 01:25:49;;;;;;;5.80;2.03;;;9.90;39.50;;;;;;5072362;28;20185;-74
2023/11/24 01:28:31;;;;;;;6.30;1.90;;;9.90;39.60;;;;;;5061288;28;20459;-74
2023/11/24 01:31:13;;;;;;;1.60;1.50;;;;;;;;;;5073351;28;20418;-74
2023/11/24 01:33:39;;;;;;;2.70;1.53;;;9.90;39.60;;;;;;5081096;28;20413;-74
2023/11/24 01:36:19;;;;;;;1.53;1.30;;;9.90;39.50;;;;;;5070223;28;20429;-74
2023/11/24 01:38:46;;;;;;;1.30;1.20;;;9.90;39.60;;;;;;5074978;28;20736;-74
2023/11/24 01:41:19;;;;;;;1.70;1.50;;;9.90;39.60;;;;;;5073261;28;20450;-74
2023/11/24 01:44:06;;;;;;;2.93;1.60;;;10.00;38.70;;;;;;5073259;28;20538;-74
2023/11/24 01:46:43;;;;;;;4.33;1.90;;;10.00;38.70;;;;;;5077951;28;20531;-74
2023/11/24 01:49:19;;;;;;;1.63;1.33;;;10.10;38.80;;;;;;5083513;28;20440;-74
2023/11/24 01:51:45;;;;;;;1.97;1.57;;;10.00;38.70;;;;;;5059642;28;20463;-74
2023/11/24 01:54:13;;;;;;;1.90;1.33;;;10.10;38.80;;;;;;5073237;28;20419;-73
2023/11/24 01:56:40;;;;;;;1.77;1.30;;;10.00;38.70;;;;;;5091147;28;20229;-74
2023/11/24 01:59:06;;;;;;;4.43;1.23;;;;;;;;;;5079518;28;20464;-74
2023/11/24 02:01:34;;;;;;;1.97;1.40;;;10.00;38.70;;;;;;5086609;28;20453;-74
2023/11/24 02:04:07;;;;;;;4.30;2.07;;;10.10;38.80;;;;;;5078432;28;20420;-74
2023/11/24 02:06:37;;;;;;;4.93;1.20;;;;;;;;;;5079101;28;20400;-74
2023/11/24 02:09:03;;;;;;;7.17;1.47;;;;;;;;;;5079690;28;20409;-74
2023/11/24 02:11:37;;;;;;;4.60;1.40;;;9.90;1.00;;;;;;5084430;28;20764;-75
2023/11/24 02:14:03;;;;;;;5.77;1.20;;;9.90;1.00;;;;;;5074018;28;20417;-73
2023/11/24 02:16:29;;;;;;;12.43;2.13;;;;;;;;;;5068606;28;20425;-74
2023/11/24 02:19:01;;;;;;;7.00;1.50;;;;;;;;;;5077163;28;20568;-73
2023/11/24 02:21:37;;;;;;;702.38;271.48;;;;;;;;;;5083200;28;21002;-74
2023/11/24 02:24:06;;;;;;;9.33;2.37;;;9.40;1.00;;;;;;5089559;28;20174;-72
2023/11/24 02:26:31;;;;;;;3.93;1.57;;;9.30;1.00;;;;;;5083668;28;20415;-73
2023/11/24 02:28:57;;;;;;;8.27;1.90;;;9.20;1.00;;;;;;5084298;28;20518;-73
2023/11/24 02:31:23;;;;;;;10.40;1.70;;;;;;;;;;5082846;28;20230;-73
2023/11/24 02:33:55;;;;;;;2.87;1.07;;;9.20;1.00;;;;;;5069088;28;20174;-73
2023/11/24 02:36:23;;;;;;;9.70;1.23;;;9.20;1.00;;;;;;5082787;28;20417;-73
2023/11/24 02:38:49;;;;;;;7.70;1.87;;;9.10;1.00;;;;;;5077272;28;20418;-73
2023/11/24 02:41:16;;;;;;;10.97;2.17;;;9.20;1.00;;;;;;5080532;28;20498;-73
2023/11/24 02:43:42;;;;;;;4.33;1.37;;;9.10;1.00;;;;;;5082782;28;20891;-73
2023/11/24 02:46:15;;;;;;;13.33;1.93;;;9.20;1.00;;;;;;5078324;28;20433;-73
2023/11/24 02:48:44;;;;;;;8.97;2.07;;;9.10;1.00;;;;;;5075367;28;20489;-73
2023/11/24 02:51:10;;;;;;;4.10;1.70;;;9.10;1.00;;;;;;5075499;28;20482;-73
2023/11/24 02:53:37;;;;;;;6.00;1.27;;;9.10;1.00;;;;;;5089436;28;20409;-73
2023/11/24 02:56:04;;;;;;;6.40;1.60;;;9.20;1.00;;;;;;5075756;28;20397;-74
2023/11/24 02:58:43;;;;;;;13.10;1.90;;;9.20;1.00;;;;;;5076103;28;20414;-80
2023/11/24 03:01:42;;;;;;;5.40;1.30;;;9.20;1.00;;;;;;5065017;28;20477;-81
2023/11/24 03:07:43;;;;;;;2.13;1.37;;;9.20;1.00;;;;;;5074581;28;20931;-80
2023/11/24 03:10:13;;;;;;;13.60;1.83;;;9.20;1.00;;;;;;5077342;28;20766;-81
2023/11/24 03:12:39;;;;;;;12.50;2.23;;;;;;;;;;5087479;28;20496;-74
2023/11/24 03:15:11;;;;;;;9.03;1.87;;;9.30;1.00;;;;;;5073090;28;20417;-81
2023/11/24 03:17:36;;;;;;;10.10;1.77;;;9.20;1.00;;;;;;5073498;28;20508;-81
2023/11/24 03:23:31;;;;;;;5.63;1.20;;;9.20;1.00;;;;;;5078750;28;20178;-81
2023/11/24 03:26:42;;;;;;;12.53;1.37;;;9.20;1.00;;;;;;5094661;28;20472;-81
2023/11/24 03:29:08;;;;;;;14.73;1.60;;;;;;;;;;5077909;28;20408;-74
2023/11/24 03:31:35;;;;;;;4.00;1.10;;;9.20;1.00;;;;;;5081804;28;20821;-73
2023/11/24 03:34:01;;;;;;;15.27;1.70;;;9.10;1.00;;;;;;5080998;28;20409;-74
2023/11/24 03:36:27;;;;;;;10.80;1.83;;;;;;;;;;5079135;28;20777;-74
2023/11/24 03:39:01;;;;;;;5.70;1.63;;;8.90;1.00;;;;;;5083814;28;20409;-74
2023/11/24 03:41:37;;;;;;;6.67;1.90;;;;;;;;;;5074972;28;20803;-74
2023/11/24 03:48:19;;;;;;;3.37;1.17;;;8.70;1.00;;;;;;5083177;28;20497;-79
2023/11/24 03:51:33;;;;;;;2.00;0.83;;;8.80;1.00;;;;;;5081196;28;21099;-81
2023/11/24 03:57:20;;;;;;;0.73;0.70;;;8.60;1.00;;;;;;5078181;28;20396;-81
2023/11/24 04:00:13;;;;;;;3.80;0.93;;;8.50;1.00;;;;;;5083230;28;20412;-81
2023/11/24 04:03:12;;;;;;;5.80;1.20;;;8.50;1.00;;;;;;5080115;28;20794;-81
2023/11/24 04:06:01;;;;;;;3.07;1.03;;;8.40;1.00;;;;;;5068097;28;20413;-79
2023/11/24 04:09:14;;;;;;;6.27;1.47;;;8.40;1.00;;;;;;5074331;28;20423;-80
2023/11/24 04:15:05;;;;;;;6.90;1.20;;;8.30;1.00;;;;;;5080133;28;20490;-72
2023/11/24 04:17:32;;;;;;;7.03;1.83;;;;;;;;;;5081155;28;21029;-72
2023/11/24 04:19:57;;;;;;;3.23;1.13;;;8.30;1.00;;;;;;5073637;28;20414;-73
2023/11/24 04:22:31;;;;;;;11.90;1.67;;;8.20;1.00;;;;;;5073467;28;20475;-74
2023/11/24 04:24:57;;;;;;;14.80;2.23;;;;;;;;;;5068539;28;20451;-74
2023/11/24 04:27:25;;;;;;;8.53;0.90;;;8.10;1.00;;;;;;5078772;28;20916;-75
2023/11/24 04:30:01;;;;;;;8.30;1.37;;;8.00;1.00;;;;;;5072303;28;20429;-74
2023/11/24 04:32:27;;;;;;;4.43;1.27;;;7.80;1.00;;;;;;5075136;28;20975;-74
2023/11/24 04:34:55;;;;;;;3.50;1.00;;;7.80;1.00;;;;;;5074993;28;20500;-74
2023/11/24 04:37:20;;;;;;;3.70;0.80;;;7.70;1.00;;;;;;5070717;28;20166;-74
2023/11/24 04:39:46;;;;;;;9.47;2.00;;;;;;;;;;5072762;28;20410;-73
2023/11/24 04:42:15;;;;;;;2.80;0.90;;;;;;;;;;5072556;28;20199;-74
2023/11/24 04:44:41;;;;;;;7.10;1.20;;;;;;;;;;5076858;28;20931;-74
2023/11/24 04:47:08;;;;;;;10.43;1.03;;;7.50;1.00;;;;;;5081853;28;20430;-74
2023/11/24 04:49:37;;;;;;;24.33;1.63;;;7.40;1.00;;;;;;5079524;28;20457;-74
2023/11/24 04:52:07;;;;;;;15.03;1.63;;;;;;;;;;5079621;28;20962;-74
2023/11/24 04:54:33;;;;;;;4.73;1.10;;;;;;;;;;5082197;28;20456;-73
2023/11/24 04:57:01;;;;;;;4.77;1.30;;;;;;;;;;5079151;28;20503;-73
2023/11/24 04:59:27;;;;;;;7.50;1.00;;;;;;;;;;5074101;28;20452;-73
2023/11/24 05:01:55;;;;;;;6.20;1.07;;;;;;;;;;5084070;28;20846;-73
2023/11/24 05:04:21;;;;;;;5.80;1.07;;;;;;;;;;5079785;28;20496;-73
2023/11/24 05:06:47;;;;;;;4.43;1.30;;;;;;;;;;5093661;28;20392;-73
2023/11/24 05:09:25;;;;;;;3.17;1.37;;;7.30;1.00;;;;;;5080441;28;20513;-73
2023/11/24 05:11:55;;;;;;;7.77;1.10;;;7.30;1.00;;;;;;5062321;28;20524;-73
2023/11/24 05:14:42;;;;;;;4.40;1.03;;;7.30;1.00;;;;;;5070975;28;20431;-80
2023/11/24 05:17:13;;;;;;;1.90;0.87;;;;;;;;;;5071492;28;20425;-78
2023/11/24 05:20:12;;;;;;;5.93;1.33;;;7.40;1.00;;;;;;5076896;28;20773;-80
2023/11/24 05:22:55;;;;;;;6.27;1.47;;;7.40;1.00;;;;;;5081522;28;20473;-79
2023/11/24 05:25:37;;;;;;;13.27;1.67;;;;;;;;;;5073586;28;20920;-79
2023/11/24 05:28:07;;;;;;;9.00;1.10;;;7.30;1.00;;;;;;5072923;28;20433;-80
2023/11/24 05:30:37;;;;;;;7.53;1.43;;;7.30;1.00;;;;;;5075045;28;20893;-79
2023/11/24 05:33:13;;;;;;;17.57;1.30;;;7.20;1.00;;;;;;5083864;28;20413;-80
2023/11/24 05:36:12;;;;;;;2.37;1.40;;;7.20;1.00;;;;;;5086797;28;20405;-79
2023/11/24 05:39:12;;;;;;;5.43;1.73;;;7.20;1.00;;;;;;5085153;28;20412;-80
2023/11/24 05:42:13;;;;;;;4.50;1.57;;;7.20;1.00;;;;;;5072816;28;21013;-80
2023/11/24 05:48:01;;;;;;;11.63;1.87;;;7.10;1.00;;;;;;5082931;28;20870;-81
2023/11/24 05:50:31;;;;;;;17.33;1.57;;;7.00;1.00;;;;;;5084550;28;20499;-79
2023/11/24 05:53:42;;;;;;;7.97;1.30;;;7.00;1.00;;;;;;5075885;28;20794;-78
2023/11/24 05:59:43;;;;;;;12.37;1.40;;;7.20;1.00;;;;;;5084682;28;20420;-77
2023/11/24 06:02:43;;;;;;;6.10;1.20;;;7.30;1.00;;;;;;5097007;28;20824;-78
2023/11/24 06:05:15;;;;;;;4.20;0.90;;;7.20;1.00;;;;;;5090328;28;20401;-79
2023/11/24 06:07:44;;;;;;;14.43;1.63;;;;;;;;;;5077320;28;20511;-79
2023/11/24 06:10:13;;;;;;;6.60;1.40;;;;;;;;;;5074355;28;20802;-80
2023/11/24 06:13:13;;;;;;;8.63;2.07;;;7.40;1.00;;;;;;5090499;28;20404;-86
2023/11/24 06:15:49;;;;;;;8.00;1.73;;;7.50;1.00;;;;;;5070143;28;20907;-78
2023/11/24 06:18:15;;;;;;;7.97;1.50;;;;;;;;;;5071950;28;20409;-76
2023/11/24 06:20:43;;;;;;;17.23;2.60;;;;;;;;;;5079031;28;20939;-76
2023/11/24 06:23:09;;;;;;;18.40;1.97;;;7.40;1.00;;;;;;5076117;28;20468;-73
2023/11/24 06:25:35;;;;;;;6.60;1.67;;;;;;;;;;5076744;28;20452;-72
2023/11/24 06:28:01;;;;;;;2.80;1.00;;;;;;;;;;5075987;28;20209;-73
2023/11/24 06:31:13;;;;;;;9.30;1.57;;;7.40;1.00;;;;;;5068807;28;20988;-79
2023/11/24 06:34:13;;;;;;;13.37;2.30;;;7.40;1.00;;;;;;5075303;28;20425;-77
2023/11/24 06:36:43;;;;;;;6.70;1.30;;;;;;;;;;5071593;28;20428;-77
2023/11/24 06:39:15;;;;;;;9.00;1.10;;;7.50;1.00;;;;;;5092485;28;20431;-80
2023/11/24 06:42:13;;;;;;;14.83;1.37;;;7.60;1.00;;;;;;5076817;28;20452;-78
2023/11/24 06:44:43;;;;;;;3.10;1.00;;;7.70;1.00;;;;;;5076670;28;20456;-78
2023/11/24 06:47:13;;;;;;;4.97;1.30;;;7.70;1.00;;;;;;5076252;28;20862;-78
2023/11/24 06:50:13;;;;;;;9.70;2.03;;;7.70;1.00;;;;;;5086389;28;20474;-81
2023/11/24 06:52:43;;;;;;;2.50;1.37;;;7.80;1.00;;;;;;5080489;28;20904;-78
2023/11/24 06:55:13;;;;;;;4.07;1.23;;;7.70;1.00;;;;;;5071942;28;20405;-78
2023/11/24 06:57:43;;;;;;;7.80;1.60;;;7.70;1.00;;;;;;5066880;28;20418;-78
2023/11/24 07:00:17;;;;;;;4.13;1.13;;;7.70;1.00;;;;;;5075918;28;20499;-74
2023/11/24 07:02:49;;;;;;;4.77;1.50;;;7.70;1.00;;;;;;5084574;28;20826;-77
2023/11/24 07:05:49;;;;;;;5.20;1.13;;;7.70;1.00;;;;;;5076177;28;20931;-78
2023/11/24 07:08:42;;;;;;;3.40;1.63;;;7.70;1.00;;;;;;5086715;28;20975;-82
2023/11/24 07:11:13;;;;;;;6.93;1.30;;;7.70;1.00;;;;;;5072268;28;20462;-79
2023/11/24 07:13:43;;;;;;;8.00;1.90;;;7.70;1.00;;;;;;5087790;28;20439;-79
2023/11/24 07:16:13;;;;;;;13.97;2.00;;;7.70;1.00;;;;;;5077336;28;20437;-79
2023/11/24 07:18:39;;;;;;;8.13;1.53;;;;;;;;;;5077430;28;20428;-77
2023/11/24 07:21:13;;;;;;;11.90;1.40;;;7.50;1.00;;;;;;5095224;28;20463;-76
2023/11/24 07:24:13;;;;;;;8.63;1.87;;;7.50;1.00;;;;;;5085453;28;20448;-80
2023/11/24 07:26:43;;;;;;;6.90;1.13;;;7.40;1.00;;;;;;5072430;28;20488;-78
2023/11/24 07:29:14;;;;;;;6.07;1.13;;;7.30;1.00;;;;;;5087985;28;20843;-78
2023/11/24 07:31:39;;;;;;;9.97;1.50;;;7.30;1.00;;;;;;5058580;28;20457;-71
2023/11/24 07:34:05;;;;;;;5.70;1.47;;;;;;;;;;5073631;28;20421;-72
2023/11/24 07:36:31;;;;;;;4.90;1.10;;;7.30;1.00;;;;;;5082214;28;20212;-72
2023/11/24 07:38:58;;;;;;;10.13;1.67;;;;;;;;;;5073935;28;20425;-72
2023/11/24 07:41:24;;;;;;;20.33;3.00;;;7.50;1.00;;;;;;5071151;28;20199;-73
2023/11/24 07:44:01;;;;;;;5.00;1.50;;;7.60;1.00;;;;;;5073649;28;20827;-72
2023/11/24 07:46:43;;;;;;;6.63;1.20;;;7.70;1.00;;;;;;5082842;28;20447;-79
2023/11/24 07:49:13;;;;;;;5.07;0.97;;;7.80;1.00;;;;;;5086586;28;20927;-78
2023/11/24 07:51:43;;;;;;;9.53;1.17;;;7.90;1.00;;;;;;5084424;28;20801;-78
2023/11/24 07:54:10;;;;;;;9.53;1.33;;;;;;;;;;5072318;28;20440;-78
2023/11/24 07:56:43;;;;;;;18.93;2.20;;;8.10;1.00;;;;;;5079493;28;20416;-81
2023/11/24 07:59:19;;;;;;;10.73;1.40;;;;;;;;;;5056036;28;20899;-83
2023/11/24 08:01:45;;;;;;;17.83;2.17;;;8.10;1.00;;;;;;5062139;28;20446;-83
2023/11/24 08:04:11;;;;;;;9.33;1.23;;;8.20;1.00;;;;;;5076158;28;20440;-82
2023/11/24 08:06:38;;;;;;;14.50;1.50;;;;;;;;;;5068706;28;20237;-82
2023/11/24 08:09:07;;;;;;;19.47;2.90;;;8.30;1.00;;;;;;5060945;28;20460;-77
2023/11/24 08:11:44;;;;;;;17.03;3.20;;;;;;;;;;5078193;28;20421;-82
2023/11/24 08:14:14;;;;;;;10.40;1.40;;;8.40;1.00;;;;;;5069475;28;20432;-77
2023/11/24 08:17:13;;;;;;;6.10;1.60;;;8.40;1.00;;;;;;5081733;28;20421;-78
2023/11/24 08:19:43;;;;;;;11.07;2.07;;;8.30;1.00;;;;;;5078245;28;20941;-78
2023/11/24 08:22:43;;;;;;;6.20;1.47;;;8.30;1.00;;;;;;5075691;28;20457;-80
2023/11/24 08:25:09;;;;;;;9.33;1.83;;;8.30;1.00;;;;;;5075260;28;20429;-79
2023/11/24 08:27:44;;;;;;;9.90;1.20;;;8.40;1.00;;;;;;5069280;28;20965;-79
2023/11/24 08:33:31;;;;;;;16.40;2.27;;;8.50;1.00;;;;;;5080138;28;20397;-74
2023/11/24 08:35:57;;;;;;;9.27;1.40;;;8.50;1.00;;;;;;5065608;28;20456;-74
2023/11/24 08:38:25;;;;;;;7.60;1.67;;;8.50;1.00;;;;;;5079299;28;20457;-74
2023/11/24 08:41:01;;;;;;;18.50;2.37;;;8.40;1.00;;;;;;5073017;28;20281;-74
2023/11/24 08:43:38;;;;;;;7.67;1.20;;;8.10;1.00;;;;;;5080628;28;20544;-75
2023/11/24 08:46:13;;;;;;;15.60;2.00;;;;;;;;;;5076573;28;20433;-73
2023/11/24 08:48:49;;;;;;;16.10;2.13;;;8.20;1.00;;;;;;5074703;28;20922;-80
2023/11/24 08:57:40;;;;;;;7.70;1.90;;;8.10;1.00;;;;;;5058590;28;20459;-79
2023/11/24 09:00:42;;;;;;;14.17;1.83;;;;;;;;;;5081583;28;20424;-79
2023/11/24 09:03:09;;;;;;;7.30;1.57;;;;;;;;;;5080734;28;20186;-73
2023/11/24 09:05:37;;;;;;;6.07;1.20;;;8.10;1.00;;;;;;5077865;28;20436;-73
2023/11/24 09:08:03;;;;;;;9.60;2.10;;;8.20;1.00;;;;;;5092610;28;20419;-74
2023/11/24 09:10:29;;;;;;;12.33;1.67;;;8.10;1.00;;;;;;5077768;28;20461;-73
2023/11/24 09:12:55;;;;;;;2.93;1.10;;;;;;;;;;5073106;28;20486;-73
2023/11/24 09:15:21;;;;;;;4.87;1.70;;;;;;;;;;5072875;28;20183;-73
2023/11/24 09:18:22;;;;;;;2.73;0.93;;;8.40;1.00;;;;;;5085330;28;20940;-79
2023/11/24 09:21:00;;;;;;;4.40;1.17;;;8.60;1.00;;;;;;5081558;28;20472;-80
2023/11/24 09:23:37;;;;;;;3.67;1.00;;;8.70;1.00;;;;;;5075193;28;20785;-79
2023/11/24 09:26:06;;;;;;;8.73;0.90;;;8.80;1.00;;;;;;5077468;28;20427;-79
2023/11/24 09:29:19;;;;;;;4.77;1.10;;;8.90;1.00;;;;;;5086792;28;20415;-79
2023/11/24 09:32:19;;;;;;;2.40;0.80;;;8.80;1.00;;;;;;5067251;28;20975;-78
2023/11/24 09:35:06;;;;;;;5.70;1.20;;;8.70;1.00;;;;;;5071429;28;20780;-78
2023/11/24 09:38:01;;;;;;;1.23;0.80;;;8.70;1.00;;;;;;5072645;28;20429;-79
2023/11/24 09:40:44;;;;;;;3.60;1.07;;;;;;;;;;5086518;28;20408;-79
2023/11/24 09:43:48;;;;;;;4.43;1.13;;;8.70;1.00;;;;;;5083443;28;20425;-79
2023/11/24 09:46:46;;;;;;;3.83;0.70;;;8.80;1.00;;;;;;5067348;28;20440;-79
2023/11/24 09:49:15;;;;;;;0.60;0.50;;;8.70;1.00;;;;;;5072184;28;20512;-79
2023/11/24 09:51:56;;;;;;;0.73;0.50;;;8.80;1.00;;;;;;5075739;28;20433;-79
2023/11/24 09:54:43;;;;;;;4.43;0.80;;;8.70;1.00;;;;;;5073016;28;20462;-79
2023/11/24 09:57:20;;;;;;;1.83;0.70;;;8.60;1.00;;;;;;5076930;28;20427;-78
2023/11/24 10:06:29;;;;;;;4.37;0.60;;;8.30;1.00;;;;;;5081509;28;20401;-79
2023/11/24 10:09:10;;;;;;;12.30;1.70;;;;;;;;;;5074927;28;20402;-82
2023/11/24 10:14:58;;;;;;;4.33;1.33;;;8.00;1.00;;;;;;5074600;28;20482;-77
2023/11/24 10:17:23;;;;;;;1.60;0.67;;;7.80;1.00;;;;;;5072942;28;20441;-77
2023/11/24 10:19:55;;;;;;;2.50;0.70;;;7.80;1.00;;;;;;5071419;28;20183;-77
2023/11/24 10:22:27;;;;;;;4.00;0.93;;;7.70;1.00;;;;;;5061716;28;20194;-77
2023/11/24 10:25:34;;;;;;;3.80;0.70;;;7.60;1.00;;;;;;5072619;28;20888;-77
2023/11/24 10:28:08;;;;;;;3.43;0.87;;;;;;;;;;5071027;28;20382;-77
2023/11/24 10:30:34;;;;;;;23.63;1.80;;;;;;;;;;5053448;27;20405;-78
2023/11/24 10:36:24;;;;;;;0.60;0.60;;;7.40;1.00;;;;;;5078312;28;20403;-77
2023/11/24 10:39:10;;;;;;;0.97;0.70;;;7.60;1.00;;;;;;5091585;28;20492;-77
2023/11/24 10:41:46;;;;;;;0.80;0.50;;;7.60;1.00;;;;;;5067322;28;20452;-77
2023/11/24 10:47:43;;;;;;;3.43;0.70;;;7.70;1.00;;;;;;5082712;28;20412;-77
2023/11/24 10:50:13;;;;;;;5.03;0.80;;;7.80;1.00;;;;;;5081746;28;20908;-77
2023/11/24 10:53:04;;;;;;;1.77;0.50;;;7.80;1.00;;;;;;5080610;28;20958;-77
2023/11/24 10:55:38;;;;;;;0.50;0.40;;;7.80;1.00;;;;;;5081339;28;20545;-78
2023/11/24 10:58:32;;;;;;;0.50;0.50;;;7.90;1.00;;;;;;5084931;28;20473;-77
2023/11/24 11:01:55;;;;;;;1.87;0.67;;;7.90;1.00;;;;;;5095340;28;20460;-77
2023/11/24 11:04:27;;;;;;;1.57;0.70;;;8.20;1.00;;;;;;5068276;28;20465;-73
2023/11/24 11:07:14;;;;;;;2.83;0.90;;;8.30;1.00;;;;;;5080658;28;20420;-73
2023/11/24 11:09:51;;;;;;;2.43;0.77;;;8.40;1.00;;;;;;5070367;28;20420;-73
2023/11/24 11:12:51;;;;;;;2.40;0.80;;;8.50;1.00;;;;;;5068583;28;20912;-73
2023/11/24 11:15:24;;;;;;;1.47;0.67;;;8.60;1.00;;;;;;5076726;28;20459;-73
2023/11/24 11:18:07;;;;;;;2.30;1.10;;;;;;;;;;5068285;28;20422;-76
2023/11/24 11:20:45;;;;;;;10.80;1.80;;;;;;;;;;5070694;28;20734;-77
2023/11/24 11:23:49;;;;;;;1.00;0.60;;;8.80;1.00;;;;;;5069105;28;20796;-76
2023/11/24 11:26:45;;;;;;;1.73;0.67;;;8.60;1.00;;;;;;5075602;28;20494;-79
2023/11/24 11:29:23;;;;;;;2.10;0.83;;;8.50;1.00;;;;;;5081690;28;20413;-79
2023/11/24 11:35:11;;;;;;;2.10;0.90;;;8.30;1.00;;;;;;5067912;28;20412;-73
2023/11/24 11:37:38;;;;;;;2.03;0.93;;;;;;;;;;5074796;28;20767;-73
2023/11/24 11:40:15;;;;;;;107.97;10.33;;;8.10;1.00;;;;;;5061338;28;20257;-73
2023/11/24 11:43:01;;;;;;;3.60;1.37;;;8.10;1.00;;;;;;5072960;28;20442;-73
2023/11/24 11:45:33;;;;;;;10.63;1.67;;;8.10;1.00;;;;;;5075423;28;20930;-73
2023/11/24 11:48:02;;;;;;;3.23;1.30;;;8.00;1.00;;;;;;5070266;28;20429;-72
2023/11/24 11:50:32;;;;;;;3.10;1.53;;;7.90;1.00;;;;;;5070902;28;20424;-73
2023/11/24 11:53:00;;;;;;;3.00;1.17;;;7.90;1.00;;;;;;5068138;28;20501;-72
2023/11/24 11:55:28;;;;;;;3.53;1.50;;;;;;;;;;5069791;28;20406;-72
2023/11/24 11:57:54;;;;;;;8.97;1.47;;;;;;;;;;5068923;28;20780;-72
2023/11/24 12:00:37;;;;;;;2.80;0.90;;;8.00;1.00;;;;;;5070269;28;20394;-78
2023/11/24 12:03:05;;;;;;;1.20;0.80;;;;;;;;;;5074191;28;20432;-78
2023/11/24 12:05:32;;;;;;;3.30;1.10;;;8.00;1.00;;;;;;5072354;28;21947;-72
2023/11/24 12:08:00;;;;;;;6.63;1.33;;;;;;;;;;5075113;28;20428;-72
2023/11/24 12:10:29;;;;;;;9.93;2.00;;;8.00;1.00;;;;;;5068171;28;20773;-72
2023/11/24 12:12:55;;;;;;;3.13;1.20;;;;;;;;;;5072352;28;20919;-72
2023/11/24 12:15:23;;;;;;;1.60;1.00;;;;;;;;;;5069802;28;20413;-72
2023/11/24 12:17:55;;;;;;;5.60;1.63;;;8.50;1.00;;;;;;5077110;28;20459;-72
2023/11/24 12:20:22;;;;;;;5.83;1.47;;;8.60;1.00;;;;;;5083114;28;20488;-72
2023/11/24 12:22:49;;;;;;;19.33;3.13;;;;;;;;;;5084821;28;20831;-73
2023/11/24 12:25:15;;;;;;;2.63;1.30;;;8.70;1.00;;;;;;5077241;28;20410;-72
2023/11/24 12:27:50;;;;;;;5.50;1.40;;;;;;;;;;5082401;28;20427;-72
2023/11/24 12:30:16;;;;;;;5.23;1.80;;;8.70;1.00;;;;;;5069868;28;20423;-72
2023/11/24 12:32:43;;;;;;;3.97;1.50;;;8.70;1.00;;;;;;5064383;27;20463;-72
2023/11/24 12:35:09;;;;;;;1.17;0.83;;;8.60;1.00;;;;;;5075873;28;20433;-73
2023/11/24 12:37:39;;;;;;;2.77;1.10;;;8.20;1.00;;;;;;5076646;28;20459;-72
2023/11/24 12:40:10;;;;;;;673.58;161.40;;;7.70;1.00;;;;;;5077042;28;20424;-73
2023/11/24 12:42:37;;;;;;;171.90;63.20;;;7.20;1.00;;;;;;5066650;28;20203;-72
2023/11/24 12:45:08;;;;;;;81.10;30.00;;;6.90;1.00;;;;;;5069953;28;20187;-73
2023/11/24 12:47:34;;;;;;;17.20;9.00;;;;;;;;;;5073186;28;20661;-73
2023/11/24 12:50:05;;;;;;;;;;;6.70;1.00;;;;;;5079221;28;20514;-73
2023/11/24 12:52:34;;;;;;;25.00;14.00;;;6.50;1.00;;;;;;5075712;28;20163;-73
2023/11/24 12:55:01;;;;;;;;;;;6.40;1.00;;;;;;5075329;28;20167;-73
2023/11/24 12:57:27;;;;;;;12.20;8.90;;;6.40;1.00;;;;;;5076735;28;20020;-73
2023/11/24 12:59:56;;;;;;;7.30;6.00;;;;;;;;;;5061082;28;20717;-73
2023/11/24 13:02:22;;;;;;;10.00;9.00;;;6.30;1.00;;;;;;5075141;28;20440;-72
2023/11/24 13:08:09;;;;;;;;;;;6.30;1.00;;;;;;5072916;28;20904;-80
2023/11/24 13:17:00;;;;;;;7.90;4.95;;;6.10;1.00;;;;;;5072006;28;20513;-80
2023/11/24 13:19:32;;;;;;;22.90;13.00;;;;;;;;;;5069026;28;20478;-79
2023/11/24 13:22:49;;;;;;;61.85;25.00;;;5.90;1.00;;;;;;5073820;28;20518;-79
2023/11/24 13:25:25;;;;;;;55.90;24.60;;;5.80;1.00;;;;;;5074665;28;20187;-79
2023/11/24 13:28:02;;;;;;;53.00;24.20;;;;;;;;;;5066083;28;20166;-79
2023/11/24 13:33:49;;;;;;;54.15;25.15;;;5.90;1.00;;;;;;5078162;28;20217;-79
2023/11/24 13:36:21;;;;;;;55.00;24.00;;;5.90;1.00;;;;;;5072116;28;20255;-79
2023/11/24 13:39:29;;;;;;;61.07;24.77;;;5.90;1.00;;;;;;5068720;28;20024;-79
2023/11/24 13:48:38;;;;;;;49.70;21.70;;;6.00;1.00;;;;;;5064166;28;20372;-79
2023/11/24 13:51:06;;;;;;;62.10;26.50;;;;;;;;;;5054312;28;20713;-72
2023/11/24 13:53:37;;;;;;;61.60;26.20;;;6.10;1.00;;;;;;5063104;28;20605;-72
2023/11/24 13:56:08;;;;;;;48.33;22.47;;;6.20;1.00;;;;;;5072015;28;20209;-72
2023/11/24 13:58:34;;;;;;;13.05;8.55;;;;;;;;;;5063349;28;21156;-72
2023/11/24 14:01:00;;;;;;;1.50;1.50;;;6.50;1.00;;;;;;5071464;28;20441;-73
2023/11/24 14:03:26;;;;;;;1.20;1.20;;;;;;;;;;5068023;28;20494;-72
2023/11/24 14:06:31;;;;;;;8.60;4.80;;;6.60;1.00;;;;;;5060192;28;20402;-79
2023/11/24 14:09:39;;;;;;;1.00;1.00;;;6.60;1.00;;;;;;5065531;28;20597;-79
2023/11/24 14:15:20;;;;;;;1.00;1.00;;;;;;;;;;5079254;28;20436;-79
2023/11/24 14:17:46;;;;;;;0.90;0.90;;;6.60;1.00;;;;;;5068362;28;20414;-79
2023/11/24 14:23:34;;;;;;;1.60;1.50;;;6.60;1.00;;;;;;5080613;28;20039;-78
2023/11/24 14:29:21;;;;;;;0.60;0.60;;;6.70;1.00;;;;;;5086794;28;20032;-73
2023/11/24 14:31:56;;;;;;;0.70;0.70;;;;;;;;;;5074370;28;20532;-74
2023/11/24 14:34:26;;;;;;;1.90;1.80;;;;;;;;;;5089597;28;20106;-74
2023/11/24 14:37:02;;;;;;;1.10;1.10;;;6.60;1.00;;;;;;5071234;28;20405;-74
2023/11/24 14:39:43;;;;;;;0.70;0.70;;;6.50;1.00;;;;;;5055745;28;20884;-76
2023/11/24 14:42:26;;;;;;;1.60;1.60;;;;;;;;;;5056321;28;20443;-76
2023/11/24 14:45:01;;;;;;;0.60;0.60;;;6.10;1.00;;;;;;5074693;28;20494;-75
2023/11/24 14:50:55;;;;;;;;;;;5.90;1.00;;;;;;5081685;28;20266;-74
2023/11/24 14:53:32;;;;;;;;;;;5.80;1.00;;;;;;5071070;28;20778;-75
2023/11/24 14:56:08;;;;;;;;;;;5.80;1.00;;;;;;5073115;28;20189;-76
2023/11/24 15:02:04;;;;;;;;;;;5.50;1.00;;;;;;5092283;28;20452;-78
2023/11/24 15:05:01;;;;;;;;;;;5.30;1.00;;;;;;5082277;28;20020;-78
2023/11/24 15:07:29;;;;;;;;;;;5.20;1.00;;;;;;5083729;28;20206;-74
2023/11/24 15:10:07;;;;;;;;;;;5.20;1.00;;;;;;5075791;28;20153;-74
2023/11/24 15:12:41;;;;;;;;;;;5.00;1.00;;;;;;5055995;28;20141;-75
2023/11/24 15:15:33;;;;;;;;;;;4.90;1.00;;;;;;5063307;28;20139;-74
2023/11/24 15:18:03;;;;;;;;;;;4.90;1.00;;;;;;5075984;28;20187;-74
2023/11/24 15:20:44;;;;;;;22.30;10.70;;;;;;;;;;5075628;28;20504;-74
2023/11/24 15:23:13;;;;;;;4.70;3.65;;;4.80;1.00;;;;;;5061428;28;20191;-74
2023/11/24 15:25:57;;;;;;;9.10;5.40;;;4.80;1.00;;;;;;5092889;28;20735;-74
2023/11/24 15:28:25;;;;;;;1.40;1.40;;;4.80;1.00;;;;;;5077457;28;20571;-73
2023/11/24 15:31:09;;;;;;;1.65;1.65;;;4.70;1.00;;;;;;5074666;28;20220;-73
2023/11/24 15:33:44;;;;;;;1.05;1.05;;;;;;;;;;5081463;28;20402;-73
2023/11/24 15:36:15;;;;;;;0.80;0.80;;;4.60;1.00;;;;;;5079701;28;20398;-73
2023/11/24 15:38:45;;;;;;;1.55;1.55;;;4.60;1.00;;;;;;5078771;28;20477;-73
2023/11/24 15:41:41;;;;;;;1.15;1.15;;;4.60;1.00;;;;;;5073616;28;20445;-73
2023/11/24 15:44:12;;;;;;;0.85;0.85;;;4.50;1.00;;;;;;5087685;28;20454;-73
2023/11/24 15:46:38;;;;;;;1.00;1.00;;;;;;;;;;5074638;28;20920;-73
2023/11/24 15:49:14;;;;;;;1.15;1.15;;;4.40;1.00;;;;;;5074302;28;20465;-71
2023/11/24 15:52:07;;;;;;;0.90;0.90;;;4.50;1.00;;;;;;5073947;28;20453;-72
2023/11/24 15:54:38;;;;;;;0.90;0.90;;;4.50;1.00;;;;;;5083541;28;20265;-72
2023/11/24 15:57:04;;;;;;;0.70;0.70;;;4.50;1.00;;;;;;5080215;28;20416;-73